SUAA    
 191100Z 35006KT 8000 FEW023 SCT070 19/17 Q1011   
 SUCA    
 191100Z 34007KT 9999 FEW020 19/17 Q1010    
 SUDU    
 191100Z 10006KT 8000 NSC 18/16 Q1012    
 SULS    
 191100Z 30002KT 9999 FEW23 20/16 Q1011    
 SUMU    
 191100Z 36003KT 9999 FEW026 20/16 Q1011 NOSIG   
 SUSO    
 191100Z 00000KT CAVOK 17/16 Q1012     
 SABE    
 191100Z 00000KT CAVOK 24/15 Q1011 NOSIG    
 SACO    
 191100Z VRB02KT CAVOK 16/13 Q1013 NOSIG    
 SADF    
 191100Z 00000KT CAVOK 18/15 Q1011     
 SAEZ    
 191100Z 00000KT CAVOK 18/15 Q1011 NOSIG    
 SAZB    
 171112Z 20017G34KT 9999 FEW040 FEW045CB BKN060 23/17 Q1003  
 SAZM    
 020100Z 27003KT CAVOK 02/00 Q1017     
 SBPA    
 191100Z 31003KT 280V350 9999 SCT015 BKN040 24/24 Q1011  
 SGAS    
 191100Z 15007KT 110V180 9999 FEW033 24/21 Q1012   
 SGES    
 191100Z 17005KT 9999 SCT008 BKN015 24/22 Q1011   
 SCCI    
 191100Z 25025KT 9999 FEW030 SCT120 BKN220 07/02 Q1005 NOSIG 
 SCRM    
 191100Z 11022KT 9999 BKN008 OVC020 01/00 Q1002 NOSIG